sensor_id;sensor_type;location;lat;lon;timestamp;pressure;altitude;pressure_sealevel;temperature;humidity
4326;BME280;58429;49.826;10.880;2023-09-08T00:00:56;99049;;;16.72;72.66
4326;BME280;58429;49.826;10.880;2023-09-08T00:01:56;99051;;;16.69;73.31
4326;BME280;58429;49.826;10.880;2023-09-08T00:02:56;99046;;;16.61;73.62
4326;BME280;58429;49.826;10.880;2023-09-08T00:03:56;99049;;;16.6;73.6
4326;BME280;58429;49.826;10.880;2023-09-08T00:04:56;99044;;;16.53;73.47
4326;BME280;58429;49.826;10.880;2023-09-08T00:05:56;99046;;;16.58;73.28
4326;BME280;58429;49.826;10.880;2023-09-08T00:06:56;99043;;;16.57;73.04
4326;BME280;58429;49.826;10.880;2023-09-08T00:07:56;99045;;;16.57;72.95
4326;BME280;58429;49.826;10.880;2023-09-08T00:08:56;99046;;;16.59;72.62
4326;BME280;58429;49.826;10.880;2023-09-08T00:09:56;99049;;;16.58;72.89
4326;BME280;58429;49.826;10.880;2023-09-08T00:10:56;99053;;;16.58;72.61
4326;BME280;58429;49.826;10.880;2023-09-08T00:11:56;99049;;;16.52;73
4326;BME280;58429;49.826;10.880;2023-09-08T00:12:56;99049;;;16.47;73.34
4326;BME280;58429;49.826;10.880;2023-09-08T00:13:56;99049;;;16.5;73.08
4326;BME280;58429;49.826;10.880;2023-09-08T00:14:56;99045;;;16.51;73.18
4326;BME280;58429;49.826;10.880;2023-09-08T00:15:56;99049;;;16.45;73.17
4326;BME280;58429;49.826;10.880;2023-09-08T00:16:56;99048;;;16.55;73.05
4326;BME280;58429;49.826;10.880;2023-09-08T00:17:56;99047;;;16.51;73.2
4326;BME280;58429;49.826;10.880;2023-09-08T00:18:56;99046;;;16.45;73.45
4326;BME280;58429;49.826;10.880;2023-09-08T00:19:56;99041;;;16.41;73.35
4326;BME280;58429;49.826;10.880;2023-09-08T00:20:56;99042;;;16.41;73.24
4326;BME280;58429;49.826;10.880;2023-09-08T00:21:56;99047;;;16.37;73.09
4326;BME280;58429;49.826;10.880;2023-09-08T00:22:56;99045;;;16.37;73.2
4326;BME280;58429;49.826;10.880;2023-09-08T00:23:56;99042;;;16.37;73.16
4326;BME280;58429;49.826;10.880;2023-09-08T00:24:56;99045;;;16.37;73.13
4326;BME280;58429;49.826;10.880;2023-09-08T00:25:56;99048;;;16.36;73.05
4326;BME280;58429;49.826;10.880;2023-09-08T00:26:56;99045;;;16.34;73.44
4326;BME280;58429;49.826;10.880;2023-09-08T00:27:56;99043;;;16.3;74.55
4326;BME280;58429;49.826;10.880;2023-09-08T00:28:56;99044;;;16.29;74.62
4326;BME280;58429;49.826;10.880;2023-09-08T00:29:56;99047;;;16.23;74.67
4326;BME280;58429;49.826;10.880;2023-09-08T00:30:56;99045;;;16.18;74.42
4326;BME280;58429;49.826;10.880;2023-09-08T00:31:56;99044;;;16.15;74.84
4326;BME280;58429;49.826;10.880;2023-09-08T00:32:56;99042;;;16.14;74.59
4326;BME280;58429;49.826;10.880;2023-09-08T00:33:56;99038;;;16.15;74.66
4326;BME280;58429;49.826;10.880;2023-09-08T00:34:56;99047;;;16.09;75.22
4326;BME280;58429;49.826;10.880;2023-09-08T00:35:56;99048;;;16.08;74.79
4326;BME280;58429;49.826;10.880;2023-09-08T00:36:56;99047;;;16.07;75.3
4326;BME280;58429;49.826;10.880;2023-09-08T00:37:56;99050;;;15.98;75.7
4326;BME280;58429;49.826;10.880;2023-09-08T00:38:56;99051;;;15.94;75.07
4326;BME280;58429;49.826;10.880;2023-09-08T00:39:56;99049;;;15.96;75.66
4326;BME280;58429;49.826;10.880;2023-09-08T00:40:56;99044;;;15.94;75.1
4326;BME280;58429;49.826;10.880;2023-09-08T00:41:56;99046;;;15.91;75.25
4326;BME280;58429;49.826;10.880;2023-09-08T00:42:56;99049;;;15.86;75.75
4326;BME280;58429;49.826;10.880;2023-09-08T00:43:56;99049;;;15.85;75.34
4326;BME280;58429;49.826;10.880;2023-09-08T00:44:56;99055;;;15.86;74.98
4326;BME280;58429;49.826;10.880;2023-09-08T00:45:56;99050;;;15.91;74.69
4326;BME280;58429;49.826;10.880;2023-09-08T00:46:56;99052;;;15.87;74.59
4326;BME280;58429;49.826;10.880;2023-09-08T00:47:56;99047;;;15.93;74.35
4326;BME280;58429;49.826;10.880;2023-09-08T00:48:56;99045;;;15.88;74.49
4326;BME280;58429;49.826;10.880;2023-09-08T00:49:56;99045;;;15.88;74.49
4326;BME280;58429;49.826;10.880;2023-09-08T00:50:56;99041;;;15.9;74.53
4326;BME280;58429;49.826;10.880;2023-09-08T00:51:56;99044;;;15.87;74.31
4326;BME280;58429;49.826;10.880;2023-09-08T00:52:56;99049;;;15.89;74.09
4326;BME280;58429;49.826;10.880;2023-09-08T00:53:56;99048;;;15.88;74.37
4326;BME280;58429;49.826;10.880;2023-09-08T00:54:56;99047;;;15.86;74.27
4326;BME280;58429;49.826;10.880;2023-09-08T00:55:56;99045;;;15.86;74.27
4326;BME280;58429;49.826;10.880;2023-09-08T00:56:56;99049;;;15.85;74.15
4326;BME280;58429;49.826;10.880;2023-09-08T00:57:56;99049;;;15.83;74.69
4326;BME280;58429;49.826;10.880;2023-09-08T00:58:56;99050;;;15.82;74.8
4326;BME280;58429;49.826;10.880;2023-09-08T00:59:56;99042;;;15.82;74.55
4326;BME280;58429;49.826;10.880;2023-09-08T01:00:57;99051;;;15.78;75.31
4326;BME280;58429;49.826;10.880;2023-09-08T01:01:56;99051;;;15.78;75.28
4326;BME280;58429;49.826;10.880;2023-09-08T01:02:56;99045;;;15.77;75.41
4326;BME280;58429;49.826;10.880;2023-09-08T01:03:56;99050;;;15.69;75.83
4326;BME280;58429;49.826;10.880;2023-09-08T01:04:56;99049;;;15.63;75.41
4326;BME280;58429;49.826;10.880;2023-09-08T01:05:56;99047;;;15.69;75.61
4326;BME280;58429;49.826;10.880;2023-09-08T01:06:56;99050;;;15.65;75.45
4326;BME280;58429;49.826;10.880;2023-09-08T01:07:56;99051;;;15.63;75.33
4326;BME280;58429;49.826;10.880;2023-09-08T01:08:56;99054;;;15.63;75.35
4326;BME280;58429;49.826;10.880;2023-09-08T01:09:56;99043;;;15.6;75.3
4326;BME280;58429;49.826;10.880;2023-09-08T01:10:56;99046;;;15.54;76.01
4326;BME280;58429;49.826;10.880;2023-09-08T01:11:56;99049;;;15.5;75.72
4326;BME280;58429;49.826;10.880;2023-09-08T01:12:56;99054;;;15.48;75.76
4326;BME280;58429;49.826;10.880;2023-09-08T01:13:56;99046;;;15.53;75.52
4326;BME280;58429;49.826;10.880;2023-09-08T01:14:56;99051;;;15.51;75.26
4326;BME280;58429;49.826;10.880;2023-09-08T01:15:57;99049;;;15.5;75.47
4326;BME280;58429;49.826;10.880;2023-09-08T01:16:56;99048;;;15.47;75.5
4326;BME280;58429;49.826;10.880;2023-09-08T01:17:56;99040;;;15.47;75.3
4326;BME280;58429;49.826;10.880;2023-09-08T01:18:57;99050;;;15.43;75.27
4326;BME280;58429;49.826;10.880;2023-09-08T01:19:57;99051;;;15.44;75.33
4326;BME280;58429;49.826;10.880;2023-09-08T01:21:03;99047;;;15.45;75.32
4326;BME280;58429;49.826;10.880;2023-09-08T01:21:59;99048;;;15.42;75.26
4326;BME280;58429;49.826;10.880;2023-09-08T01:23:01;99057;;;15.49;75.32
4326;BME280;58429;49.826;10.880;2023-09-08T01:23:59;99057;;;15.44;75.27
4326;BME280;58429;49.826;10.880;2023-09-08T01:25:04;99060;;;15.38;75.49
4326;BME280;58429;49.826;10.880;2023-09-08T01:25:57;99054;;;15.39;75.21
4326;BME280;58429;49.826;10.880;2023-09-08T01:26:57;99057;;;15.38;75.48
4326;BME280;58429;49.826;10.880;2023-09-08T01:27:57;99053;;;15.37;75.4
4326;BME280;58429;49.826;10.880;2023-09-08T01:28:56;99063;;;15.37;75.3
4326;BME280;58429;49.826;10.880;2023-09-08T01:29:56;99052;;;15.38;75.07
4326;BME280;58429;49.826;10.880;2023-09-08T01:30:56;99046;;;15.37;75.14
4326;BME280;58429;49.826;10.880;2023-09-08T01:31:57;99048;;;15.36;75.37
4326;BME280;58429;49.826;10.880;2023-09-08T01:32:57;99049;;;15.35;75.25
4326;BME280;58429;49.826;10.880;2023-09-08T01:33:56;99052;;;15.32;75.64
4326;BME280;58429;49.826;10.880;2023-09-08T01:34:57;99043;;;15.34;75.87
4326;BME280;58429;49.826;10.880;2023-09-08T01:35:57;99047;;;15.33;75.72
4326;BME280;58429;49.826;10.880;2023-09-08T01:36:57;99046;;;15.35;75.91
4326;BME280;58429;49.826;10.880;2023-09-08T01:37:56;99038;;;15.33;75.71
4326;BME280;58429;49.826;10.880;2023-09-08T01:38:57;99047;;;15.33;75.25
4326;BME280;58429;49.826;10.880;2023-09-08T01:39:56;99045;;;15.33;75.34
4326;BME280;58429;49.826;10.880;2023-09-08T01:40:57;99045;;;15.33;75.03
4326;BME280;58429;49.826;10.880;2023-09-08T01:41:56;99043;;;15.33;75.11
4326;BME280;58429;49.826;10.880;2023-09-08T01:42:56;99043;;;15.32;75.08
4326;BME280;58429;49.826;10.880;2023-09-08T01:43:56;99041;;;15.26;75.32
4326;BME280;58429;49.826;10.880;2023-09-08T01:44:57;99039;;;15.25;75.39
4326;BME280;58429;49.826;10.880;2023-09-08T01:45:57;99043;;;15.19;75.47
4326;BME280;58429;49.826;10.880;2023-09-08T01:46:57;99041;;;15.26;75.54
4326;BME280;58429;49.826;10.880;2023-09-08T01:47:57;99039;;;15.23;75.61
4326;BME280;58429;49.826;10.880;2023-09-08T01:48:57;99038;;;15.2;75.67
4326;BME280;58429;49.826;10.880;2023-09-08T01:49:57;99036;;;15.25;75.61
4326;BME280;58429;49.826;10.880;2023-09-08T01:50:57;99034;;;15.19;75.83
4326;BME280;58429;49.826;10.880;2023-09-08T01:51:57;99038;;;15.2;75.77
4326;BME280;58429;49.826;10.880;2023-09-08T01:52:57;99040;;;15.15;75.96
4326;BME280;58429;49.826;10.880;2023-09-08T01:53:57;99036;;;15.14;76
4326;BME280;58429;49.826;10.880;2023-09-08T01:54:57;99039;;;15.13;76
4326;BME280;58429;49.826;10.880;2023-09-08T01:55:57;99034;;;15.11;76.07
4326;BME280;58429;49.826;10.880;2023-09-08T01:56:57;99038;;;15.08;76.22
4326;BME280;58429;49.826;10.880;2023-09-08T01:57:57;99044;;;15.08;76.57
4326;BME280;58429;49.826;10.880;2023-09-08T01:58:57;99033;;;15.02;76.6
4326;BME280;58429;49.826;10.880;2023-09-08T01:59:57;99038;;;15.04;76.61
4326;BME280;58429;49.826;10.880;2023-09-08T02:00:57;99038;;;14.99;76.43
4326;BME280;58429;49.826;10.880;2023-09-08T02:01:57;99039;;;15.05;76.52
4326;BME280;58429;49.826;10.880;2023-09-08T02:02:57;99033;;;14.96;76.95
4326;BME280;58429;49.826;10.880;2023-09-08T02:03:57;99038;;;15.02;76.72
4326;BME280;58429;49.826;10.880;2023-09-08T02:04:57;99034;;;14.97;76.5
4326;BME280;58429;49.826;10.880;2023-09-08T02:05:57;99040;;;14.95;76.43
4326;BME280;58429;49.826;10.880;2023-09-08T02:06:57;99034;;;14.94;76.43
4326;BME280;58429;49.826;10.880;2023-09-08T02:07:57;99038;;;14.98;76.5
4326;BME280;58429;49.826;10.880;2023-09-08T02:08:57;99036;;;14.91;76.83
4326;BME280;58429;49.826;10.880;2023-09-08T02:09:57;99033;;;14.88;76.92
4326;BME280;58429;49.826;10.880;2023-09-08T02:10:57;99037;;;14.91;76.88
4326;BME280;58429;49.826;10.880;2023-09-08T02:11:57;99032;;;14.86;77.11
4326;BME280;58429;49.826;10.880;2023-09-08T02:12:57;99042;;;14.85;77.23
4326;BME280;58429;49.826;10.880;2023-09-08T02:13:57;99041;;;14.84;77.14
4326;BME280;58429;49.826;10.880;2023-09-08T02:14:57;99038;;;14.81;77.06
4326;BME280;58429;49.826;10.880;2023-09-08T02:15:57;99033;;;14.77;77.12
4326;BME280;58429;49.826;10.880;2023-09-08T02:16:57;99031;;;14.71;77.25
4326;BME280;58429;49.826;10.880;2023-09-08T02:17:57;99034;;;14.68;77.34
4326;BME280;58429;49.826;10.880;2023-09-08T02:18:57;99033;;;14.69;77.11
4326;BME280;58429;49.826;10.880;2023-09-08T02:19:57;99035;;;14.66;77.27
4326;BME280;58429;49.826;10.880;2023-09-08T02:20:57;99028;;;14.66;77.11
4326;BME280;58429;49.826;10.880;2023-09-08T02:21:57;99038;;;14.66;77.11
4326;BME280;58429;49.826;10.880;2023-09-08T02:22:57;99040;;;14.67;77.34
4326;BME280;58429;49.826;10.880;2023-09-08T02:23:57;99031;;;14.66;77.37
4326;BME280;58429;49.826;10.880;2023-09-08T02:24:57;99034;;;14.67;77.39
4326;BME280;58429;49.826;10.880;2023-09-08T02:25:57;99037;;;14.64;77.4
4326;BME280;58429;49.826;10.880;2023-09-08T02:26:57;99034;;;14.62;77.65
4326;BME280;58429;49.826;10.880;2023-09-08T02:27:57;99038;;;14.64;77.32
4326;BME280;58429;49.826;10.880;2023-09-08T02:28:57;99031;;;14.65;77.24
4326;BME280;58429;49.826;10.880;2023-09-08T02:29:57;99033;;;14.61;77.25
4326;BME280;58429;49.826;10.880;2023-09-08T02:30:57;99032;;;14.63;77.32
4326;BME280;58429;49.826;10.880;2023-09-08T02:31:57;99028;;;14.62;77.22
4326;BME280;58429;49.826;10.880;2023-09-08T02:32:57;99029;;;14.62;77.32
4326;BME280;58429;49.826;10.880;2023-09-08T02:33:57;99030;;;14.61;77.12
4326;BME280;58429;49.826;10.880;2023-09-08T02:34:57;99035;;;14.63;77.27
4326;BME280;58429;49.826;10.880;2023-09-08T02:36:00;99034;;;14.57;77.52
4326;BME280;58429;49.826;10.880;2023-09-08T02:36:57;99038;;;14.49;77.87
4326;BME280;58429;49.826;10.880;2023-09-08T02:37:57;99032;;;14.45;77.91
4326;BME280;58429;49.826;10.880;2023-09-08T02:38:57;99031;;;14.4;78.26
4326;BME280;58429;49.826;10.880;2023-09-08T02:39:57;99032;;;14.37;78.45
4326;BME280;58429;49.826;10.880;2023-09-08T02:40:57;99023;;;14.38;78.01
4326;BME280;58429;49.826;10.880;2023-09-08T02:41:57;99032;;;14.38;77.92
4326;BME280;58429;49.826;10.880;2023-09-08T02:42:57;99034;;;14.37;77.85
4326;BME280;58429;49.826;10.880;2023-09-08T02:43:57;99034;;;14.34;77.75
4326;BME280;58429;49.826;10.880;2023-09-08T02:44:57;99036;;;14.33;77.75
4326;BME280;58429;49.826;10.880;2023-09-08T02:45:57;99032;;;14.32;77.65
4326;BME280;58429;49.826;10.880;2023-09-08T02:46:57;99032;;;14.31;77.38
4326;BME280;58429;49.826;10.880;2023-09-08T02:47:57;99035;;;14.34;77.32
4326;BME280;58429;49.826;10.880;2023-09-08T02:48:57;99033;;;14.33;77.26
4326;BME280;58429;49.826;10.880;2023-09-08T02:49:57;99026;;;14.32;77.25
4326;BME280;58429;49.826;10.880;2023-09-08T02:50:57;99036;;;14.34;77.22
4326;BME280;58429;49.826;10.880;2023-09-08T02:51:57;99036;;;14.32;77.22
4326;BME280;58429;49.826;10.880;2023-09-08T02:52:57;99034;;;14.34;77.13
4326;BME280;58429;49.826;10.880;2023-09-08T02:53:57;99033;;;14.33;76.95
4326;BME280;58429;49.826;10.880;2023-09-08T02:54:57;99030;;;14.36;76.83
4326;BME280;58429;49.826;10.880;2023-09-08T02:55:57;99034;;;14.34;76.78
4326;BME280;58429;49.826;10.880;2023-09-08T02:56:57;99032;;;14.36;76.65
4326;BME280;58429;49.826;10.880;2023-09-08T02:57:57;99023;;;14.35;76.57
4326;BME280;58429;49.826;10.880;2023-09-08T02:58:57;99025;;;14.35;76.78
4326;BME280;58429;49.826;10.880;2023-09-08T02:59:57;99027;;;14.33;77.11
4326;BME280;58429;49.826;10.880;2023-09-08T03:00:57;99026;;;14.32;77.23
4326;BME280;58429;49.826;10.880;2023-09-08T03:01:59;99029;;;14.34;77.39
4326;BME280;58429;49.826;10.880;2023-09-08T03:02:57;99030;;;14.33;77.28
4326;BME280;58429;49.826;10.880;2023-09-08T03:03:57;99022;;;14.33;77.29
4326;BME280;58429;49.826;10.880;2023-09-08T03:04:57;99028;;;14.28;77.27
4326;BME280;58429;49.826;10.880;2023-09-08T03:05:57;99027;;;14.28;77.14
4326;BME280;58429;49.826;10.880;2023-09-08T03:06:57;99030;;;14.28;76.8
4326;BME280;58429;49.826;10.880;2023-09-08T03:07:57;99029;;;14.27;76.55
4326;BME280;58429;49.826;10.880;2023-09-08T03:08:58;99028;;;14.28;76.37
4326;BME280;58429;49.826;10.880;2023-09-08T03:09:57;99025;;;14.26;76.47
4326;BME280;58429;49.826;10.880;2023-09-08T03:10:57;99024;;;14.28;76.7
4326;BME280;58429;49.826;10.880;2023-09-08T03:11:57;99023;;;14.24;76.86
4326;BME280;58429;49.826;10.880;2023-09-08T03:12:57;99014;;;14.24;77.02
4326;BME280;58429;49.826;10.880;2023-09-08T03:13:57;99016;;;14.23;76.84
4326;BME280;58429;49.826;10.880;2023-09-08T03:14:57;99016;;;14.15;76.89
4326;BME280;58429;49.826;10.880;2023-09-08T03:15:58;99014;;;14.13;76.81
4326;BME280;58429;49.826;10.880;2023-09-08T03:16:57;99015;;;14.13;76.79
4326;BME280;58429;49.826;10.880;2023-09-08T03:17:58;99015;;;14.13;76.8
4326;BME280;58429;49.826;10.880;2023-09-08T03:18:57;99015;;;14.08;76.93
4326;BME280;58429;49.826;10.880;2023-09-08T03:19:57;99016;;;14.05;76.99
4326;BME280;58429;49.826;10.880;2023-09-08T03:20:57;99015;;;14.02;77.2
4326;BME280;58429;49.826;10.880;2023-09-08T03:21:57;99018;;;13.99;77.23
4326;BME280;58429;49.826;10.880;2023-09-08T03:22:58;99011;;;14.01;77.41
4326;BME280;58429;49.826;10.880;2023-09-08T03:23:57;99017;;;14.01;77.4
4326;BME280;58429;49.826;10.880;2023-09-08T03:24:57;99013;;;14.04;77.5
4326;BME280;58429;49.826;10.880;2023-09-08T03:25:57;99015;;;14.03;77.56
4326;BME280;58429;49.826;10.880;2023-09-08T03:26:57;99014;;;14.04;77.56
4326;BME280;58429;49.826;10.880;2023-09-08T03:27:57;99015;;;13.98;77.63
4326;BME280;58429;49.826;10.880;2023-09-08T03:28:57;99015;;;13.97;77.47
4326;BME280;58429;49.826;10.880;2023-09-08T03:29:58;99014;;;13.97;77.38
4326;BME280;58429;49.826;10.880;2023-09-08T03:30:57;99016;;;13.99;77.4
4326;BME280;58429;49.826;10.880;2023-09-08T03:31:57;99014;;;14.02;77.3
4326;BME280;58429;49.826;10.880;2023-09-08T03:32:57;99018;;;14.01;77.61
4326;BME280;58429;49.826;10.880;2023-09-08T03:33:57;99013;;;14;77.66
4326;BME280;58429;49.826;10.880;2023-09-08T03:34:57;99010;;;13.97;77.55
4326;BME280;58429;49.826;10.880;2023-09-08T03:35:57;99012;;;13.99;77.61
4326;BME280;58429;49.826;10.880;2023-09-08T03:36:57;99013;;;13.99;77.66
4326;BME280;58429;49.826;10.880;2023-09-08T03:37:57;99016;;;13.98;77.73
4326;BME280;58429;49.826;10.880;2023-09-08T03:38:57;99020;;;13.91;77.83
4326;BME280;58429;49.826;10.880;2023-09-08T03:39:57;99015;;;13.95;77.76
4326;BME280;58429;49.826;10.880;2023-09-08T03:40:57;99022;;;13.97;77.57
4326;BME280;58429;49.826;10.880;2023-09-08T03:41:57;99020;;;13.94;77.38
4326;BME280;58429;49.826;10.880;2023-09-08T03:42:57;99018;;;13.94;77.4
4326;BME280;58429;49.826;10.880;2023-09-08T03:43:57;99012;;;13.93;77.75
4326;BME280;58429;49.826;10.880;2023-09-08T03:44:57;99021;;;13.9;78.02
4326;BME280;58429;49.826;10.880;2023-09-08T03:45:57;99017;;;13.9;78.15
4326;BME280;58429;49.826;10.880;2023-09-08T03:46:57;99011;;;13.9;78.09
4326;BME280;58429;49.826;10.880;2023-09-08T03:47:57;99011;;;13.89;78.19
4326;BME280;58429;49.826;10.880;2023-09-08T03:48:57;99011;;;13.89;77.98
4326;BME280;58429;49.826;10.880;2023-09-08T03:49:57;99019;;;13.92;77.95
4326;BME280;58429;49.826;10.880;2023-09-08T03:50:57;99018;;;13.91;77.75
4326;BME280;58429;49.826;10.880;2023-09-08T03:51:57;99009;;;13.91;77.49
4326;BME280;58429;49.826;10.880;2023-09-08T03:52:57;99015;;;13.88;77.46
4326;BME280;58429;49.826;10.880;2023-09-08T03:53:57;99019;;;13.89;77.35
4326;BME280;58429;49.826;10.880;2023-09-08T03:54:57;99018;;;13.9;77.55
4326;BME280;58429;49.826;10.880;2023-09-08T03:55:57;99017;;;13.87;77.74
4326;BME280;58429;49.826;10.880;2023-09-08T03:56:57;99014;;;13.85;77.86
4326;BME280;58429;49.826;10.880;2023-09-08T03:57:57;99011;;;13.82;78.22
4326;BME280;58429;49.826;10.880;2023-09-08T03:58:57;99014;;;13.81;79.19
4326;BME280;58429;49.826;10.880;2023-09-08T03:59:57;99011;;;13.72;79.18
4326;BME280;58429;49.826;10.880;2023-09-08T04:00:57;99015;;;13.71;79.33
4326;BME280;58429;49.826;10.880;2023-09-08T04:01:57;99013;;;13.78;79.35
4326;BME280;58429;49.826;10.880;2023-09-08T04:02:57;99015;;;13.76;79.3
4326;BME280;58429;49.826;10.880;2023-09-08T04:03:57;99018;;;13.67;79.42
4326;BME280;58429;49.826;10.880;2023-09-08T04:04:57;99020;;;13.71;79.29
4326;BME280;58429;49.826;10.880;2023-09-08T04:05:57;99017;;;13.74;79.01
4326;BME280;58429;49.826;10.880;2023-09-08T04:06:57;99023;;;13.75;78.86
4326;BME280;58429;49.826;10.880;2023-09-08T04:07:57;99025;;;13.73;78.56
4326;BME280;58429;49.826;10.880;2023-09-08T04:08:57;99025;;;13.71;78.52
4326;BME280;58429;49.826;10.880;2023-09-08T04:09:57;99021;;;13.7;78.56
4326;BME280;58429;49.826;10.880;2023-09-08T04:10:57;99028;;;13.61;78.4
4326;BME280;58429;49.826;10.880;2023-09-08T04:11:57;99018;;;13.63;78.56
4326;BME280;58429;49.826;10.880;2023-09-08T04:12:57;99017;;;13.61;78.55
4326;BME280;58429;49.826;10.880;2023-09-08T04:13:57;99018;;;13.65;78.44
4326;BME280;58429;49.826;10.880;2023-09-08T04:14:57;99018;;;13.66;78.73
4326;BME280;58429;49.826;10.880;2023-09-08T04:15:57;99024;;;13.6;78.53
4326;BME280;58429;49.826;10.880;2023-09-08T04:16:57;99015;;;13.59;78.79
4326;BME280;58429;49.826;10.880;2023-09-08T04:17:57;99020;;;13.61;78.79
4326;BME280;58429;49.826;10.880;2023-09-08T04:18:57;99019;;;13.58;78.92
4326;BME280;58429;49.826;10.880;2023-09-08T04:19:57;99019;;;13.57;79.7
4326;BME280;58429;49.826;10.880;2023-09-08T04:20:57;99018;;;13.53;79.84
4326;BME280;58429;49.826;10.880;2023-09-08T04:21:57;99023;;;13.48;80.25
4326;BME280;58429;49.826;10.880;2023-09-08T04:22:57;99015;;;13.49;80.1
4326;BME280;58429;49.826;10.880;2023-09-08T04:23:57;99013;;;13.5;80.09
4326;BME280;58429;49.826;10.880;2023-09-08T04:24:57;99019;;;13.51;80.37
4326;BME280;58429;49.826;10.880;2023-09-08T04:25:57;99014;;;13.46;80.27
4326;BME280;58429;49.826;10.880;2023-09-08T04:26:57;99015;;;13.41;80.18
4326;BME280;58429;49.826;10.880;2023-09-08T04:27:57;99018;;;13.42;80.4
4326;BME280;58429;49.826;10.880;2023-09-08T04:28:57;99017;;;13.38;80.5
4326;BME280;58429;49.826;10.880;2023-09-08T04:29:57;99015;;;13.38;80.38
4326;BME280;58429;49.826;10.880;2023-09-08T04:30:57;99019;;;13.36;80.52
4326;BME280;58429;49.826;10.880;2023-09-08T04:31:57;99021;;;13.35;80.57
4326;BME280;58429;49.826;10.880;2023-09-08T04:32:57;99017;;;13.38;80.26
4326;BME280;58429;49.826;10.880;2023-09-08T04:33:57;99017;;;13.35;80.55
4326;BME280;58429;49.826;10.880;2023-09-08T04:34:57;99019;;;13.35;80.57
4326;BME280;58429;49.826;10.880;2023-09-08T04:35:57;99024;;;13.34;80.86
4326;BME280;58429;49.826;10.880;2023-09-08T04:36:57;99023;;;13.33;80.61
4326;BME280;58429;49.826;10.880;2023-09-08T04:37:57;99022;;;13.34;80.83
4326;BME280;58429;49.826;10.880;2023-09-08T04:38:57;99014;;;13.34;80.55
4326;BME280;58429;49.826;10.880;2023-09-08T04:39:57;99019;;;13.34;80.71
4326;BME280;58429;49.826;10.880;2023-09-08T04:40:57;99024;;;13.28;80.96
4326;BME280;58429;49.826;10.880;2023-09-08T04:41:57;99022;;;13.33;80.66
4326;BME280;58429;49.826;10.880;2023-09-08T04:42:57;99022;;;13.33;80.58
4326;BME280;58429;49.826;10.880;2023-09-08T04:43:57;99017;;;13.28;80.87
4326;BME280;58429;49.826;10.880;2023-09-08T04:44:57;99028;;;13.26;80.7
4326;BME280;58429;49.826;10.880;2023-09-08T04:45:57;99021;;;13.27;80.92
4326;BME280;58429;49.826;10.880;2023-09-08T04:46:57;99019;;;13.26;80.82
4326;BME280;58429;49.826;10.880;2023-09-08T04:47:57;99019;;;13.27;80.62
4326;BME280;58429;49.826;10.880;2023-09-08T04:48:58;99023;;;13.21;80.59
4326;BME280;58429;49.826;10.880;2023-09-08T04:49:57;99019;;;13.22;80.59
4326;BME280;58429;49.826;10.880;2023-09-08T04:50:57;99017;;;13.21;80.4
4326;BME280;58429;49.826;10.880;2023-09-08T04:51:57;99022;;;13.2;80.07
4326;BME280;58429;49.826;10.880;2023-09-08T04:52:57;99023;;;13.18;79.88
4326;BME280;58429;49.826;10.880;2023-09-08T04:53:57;99021;;;13.18;79.8
4326;BME280;58429;49.826;10.880;2023-09-08T04:54:57;99019;;;13.15;79.67
4326;BME280;58429;49.826;10.880;2023-09-08T04:55:57;99024;;;13.16;79.76
4326;BME280;58429;49.826;10.880;2023-09-08T04:56:57;99022;;;13.11;79.64
4326;BME280;58429;49.826;10.880;2023-09-08T04:57:57;99024;;;13.16;79.44
4326;BME280;58429;49.826;10.880;2023-09-08T04:58:57;99021;;;13.12;79.5
4326;BME280;58429;49.826;10.880;2023-09-08T04:59:57;99028;;;13.14;79.53
4326;BME280;58429;49.826;10.880;2023-09-08T05:00:57;99022;;;13.11;79.39
4326;BME280;58429;49.826;10.880;2023-09-08T05:01:57;99020;;;13.11;79.57
4326;BME280;58429;49.826;10.880;2023-09-08T05:02:57;99027;;;13.09;79.77
4326;BME280;58429;49.826;10.880;2023-09-08T05:03:57;99026;;;13.14;79.79
4326;BME280;58429;49.826;10.880;2023-09-08T05:04:57;99021;;;13.08;79.7
4326;BME280;58429;49.826;10.880;2023-09-08T05:05:57;99024;;;13.11;79.74
4326;BME280;58429;49.826;10.880;2023-09-08T05:06:57;99021;;;13.09;80.06
4326;BME280;58429;49.826;10.880;2023-09-08T05:07:58;99022;;;13.06;80.04
4326;BME280;58429;49.826;10.880;2023-09-08T05:08:57;99026;;;13.07;79.99
4326;BME280;58429;49.826;10.880;2023-09-08T05:09:57;99025;;;13.08;80.03
4326;BME280;58429;49.826;10.880;2023-09-08T05:10:57;99026;;;13.09;80.04
4326;BME280;58429;49.826;10.880;2023-09-08T05:11:57;99024;;;13.08;80.05
4326;BME280;58429;49.826;10.880;2023-09-08T05:12:57;99021;;;13.1;80.19
4326;BME280;58429;49.826;10.880;2023-09-08T05:13:57;99026;;;13.12;80.31
4326;BME280;58429;49.826;10.880;2023-09-08T05:14:57;99025;;;13.14;80.25
4326;BME280;58429;49.826;10.880;2023-09-08T05:15:57;99027;;;13.1;80.37
4326;BME280;58429;49.826;10.880;2023-09-08T05:16:57;99026;;;13.09;80.88
4326;BME280;58429;49.826;10.880;2023-09-08T05:17:57;99030;;;13.1;80.97
4326;BME280;58429;49.826;10.880;2023-09-08T05:18:57;99035;;;13.05;80.99
4326;BME280;58429;49.826;10.880;2023-09-08T05:19:57;99026;;;13.08;80.88
4326;BME280;58429;49.826;10.880;2023-09-08T05:20:57;99028;;;13.07;81.1
4326;BME280;58429;49.826;10.880;2023-09-08T05:21:57;99036;;;13.08;81.08
4326;BME280;58429;49.826;10.880;2023-09-08T05:22:57;99034;;;13.09;80.9
4326;BME280;58429;49.826;10.880;2023-09-08T05:23:58;99036;;;13.15;80.73
4326;BME280;58429;49.826;10.880;2023-09-08T05:24:57;99035;;;13.19;80.94
4326;BME280;58429;49.826;10.880;2023-09-08T05:25:57;99042;;;13.11;81.03
4326;BME280;58429;49.826;10.880;2023-09-08T05:26:57;99045;;;13.11;80.88
4326;BME280;58429;49.826;10.880;2023-09-08T05:27:57;99038;;;13.11;81.04
4326;BME280;58429;49.826;10.880;2023-09-08T05:28:58;99043;;;13.13;80.99
4326;BME280;58429;49.826;10.880;2023-09-08T05:29:58;99045;;;13.16;80.94
4326;BME280;58429;49.826;10.880;2023-09-08T05:30:57;99050;;;13.14;80.86
4326;BME280;58429;49.826;10.880;2023-09-08T05:31:57;99043;;;13.15;80.99